Time;durP1;ratioP1;P1;durP2;ratioP2;P2;SDS_P1;SDS_P2;PMS_P1;PMS_P2;Temp;Humidity;BMP_temperature;BMP_pressure;BME280_temperature;BME280_humidity;BME280_pressure;Samples;Min_cycle;Max_cycle;Signal;HPM_P1;HPM_P2
2021/09/01 00:02:03;;;;;;;9.33;6.93;;;;;;;;;;5033407;28;20937;-69
2021/09/01 00:04:29;;;;;;;8.53;6.63;;;;;;;;;;5030079;28;20430;-69
2021/09/01 00:06:55;;;;;;;10.30;7.00;;;;;;;;;;5033472;28;20914;-69
2021/09/01 00:09:21;;;;;;;9.23;7.57;;;;;;;;;;5032173;28;20513;-69
2021/09/01 00:11:47;;;;;;;10.00;7.20;;;;;;;;;;5015614;28;20482;-69
2021/09/01 00:14:14;;;;;;;9.77;7.60;;;;;;;;;;5032306;28;20442;-69
2021/09/01 00:16:40;;;;;;;8.67;6.93;;;;;;;;;;5032414;28;20439;-68
2021/09/01 00:19:07;;;;;;;10.40;7.50;;;;;;;;;;5032616;28;20430;-69
2021/09/01 00:21:34;;;;;;;11.10;6.57;;;;;;;;;;5033393;28;20513;-69
2021/09/01 00:24:00;;;;;;;12.23;7.33;;;;;;;;;;5032663;28;20804;-69
2021/09/01 00:26:26;;;;;;;12.70;7.30;;;;;;;;;;5033333;28;20537;-69
2021/09/01 00:28:53;;;;;;;9.97;7.33;;;;;;;;;;5032347;28;20399;-69
2021/09/01 00:31:19;;;;;;;10.13;8.00;;;;;;;;;;5033195;28;20983;-69
2021/09/01 00:33:45;;;;;;;9.97;6.93;;;;;;;;;;5032762;28;20468;-69
2021/09/01 00:36:11;;;;;;;11.50;8.20;;;;;;;;;;5013529;28;20430;-68
2021/09/01 00:38:37;;;;;;;11.57;8.20;;;;;;;;;;5013857;28;20407;-68
2021/09/01 00:41:03;;;;;;;9.20;7.00;;;;;;;;;;5014573;28;20465;-68
2021/09/01 00:43:30;;;;;;;11.13;8.10;;;;;;;;;;5033836;28;20431;-68
2021/09/01 00:45:56;;;;;;;9.53;8.13;;;;;;;;;;5014942;28;20546;-69
2021/09/01 00:48:22;;;;;;;9.87;7.40;;;;;;;;;;5013760;28;20486;-69
2021/09/01 00:50:52;;;;;;;10.23;7.50;;;;;;;;;;5016160;28;20463;-69
2021/09/01 00:53:23;;;;;;;10.27;7.90;;;;;;;;;;5013262;28;20404;-69
2021/09/01 00:55:49;;;;;;;12.83;8.97;;;;;;;;;;5027639;28;20870;-69
2021/09/01 00:58:18;;;;;;;11.13;8.17;;;;;;;;;;5032861;28;20407;-69
2021/09/01 01:03:17;;;;;;;14.23;9.37;;;;;;;;;;5013501;28;20865;-69
2021/09/01 01:05:44;;;;;;;9.70;7.83;;;;;;;;;;5012860;28;20966;-69
2021/09/01 01:08:11;;;;;;;13.30;8.93;;;;;;;;;;5013047;28;20430;-69
2021/09/01 01:10:38;;;;;;;13.47;8.17;;;;;;;;;;5026926;28;20814;-69
2021/09/01 01:13:04;;;;;;;13.50;8.47;;;;;;;;;;5022056;28;20427;-69
2021/09/01 01:15:31;;;;;;;11.50;8.70;;;;;;;;;;5023001;28;20430;-69
2021/09/01 01:17:57;;;;;;;13.23;9.03;;;;;;;;;;5032733;28;20836;-69
2021/09/01 01:20:23;;;;;;;14.33;9.53;;;;;;;;;;5030648;28;20585;-69
2021/09/01 01:22:49;;;;;;;12.20;9.30;;;;;;;;;;5031466;28;20435;-69
2021/09/01 01:25:29;;;;;;;11.37;8.93;;;;;;;;;;5025843;28;21035;-69
2021/09/01 01:27:55;;;;;;;20.20;10.23;;;;;;;;;;5013165;28;20403;-69
2021/09/01 01:30:21;;;;;;;13.40;9.57;;;;;;;;;;5018060;28;20450;-69
2021/09/01 01:32:49;;;;;;;17.53;11.70;;;;;;;;;;5032576;28;20399;-69
2021/09/01 01:35:30;;;;;;;13.93;10.37;;;;;;;;;;5031524;28;20433;-69
2021/09/01 01:37:57;;;;;;;12.67;9.70;;;;;;;;;;5032630;28;20517;-69
2021/09/01 01:40:24;;;;;;;14.00;10.13;;;;;;;;;;5031815;28;20759;-69
2021/09/01 01:42:56;;;;;;;15.70;10.17;;;;;;;;;;5033058;28;20865;-69
2021/09/01 01:45:23;;;;;;;15.70;10.23;;;;;;;;;;5029944;28;20487;-69
2021/09/01 01:47:49;;;;;;;16.73;9.63;;;;;;;;;;5032529;28;20399;-68
2021/09/01 01:50:15;;;;;;;14.20;9.90;;;;;;;;;;5031625;28;20399;-69
2021/09/01 01:52:41;;;;;;;20.43;10.70;;;;;;;;;;5012915;28;20396;-69
2021/09/01 01:55:08;;;;;;;16.03;9.93;;;;;;;;;;4996141;28;20509;-69
2021/09/01 01:57:34;;;;;;;15.33;10.80;;;;;;;;;;5033080;28;20893;-69
2021/09/01 02:00:00;;;;;;;17.10;11.30;;;;;;;;;;5032839;28;20415;-69
2021/09/01 02:02:30;;;;;;;13.43;9.70;;;;;;;;;;5031669;28;20947;-69
2021/09/01 02:04:57;;;;;;;13.33;9.50;;;;;;;;;;5032513;28;20399;-69
2021/09/01 02:07:23;;;;;;;11.40;8.57;;;;;;;;;;5030493;28;20777;-69
2021/09/01 02:09:49;;;;;;;16.23;10.33;;;;;;;;;;5032180;28;20407;-69
2021/09/01 02:12:15;;;;;;;12.53;8.97;;;;;;;;;;5030134;28;20443;-69
2021/09/01 02:14:41;;;;;;;16.57;10.17;;;;;;;;;;5035710;28;20410;-69
2021/09/01 02:17:08;;;;;;;16.10;10.77;;;;;;;;;;5024788;28;20439;-69
2021/09/01 02:19:34;;;;;;;16.90;10.70;;;;;;;;;;5015776;28;20412;-69
2021/09/01 02:22:00;;;;;;;15.13;10.07;;;;;;;;;;5024261;28;20485;-69
2021/09/01 02:24:26;;;;;;;15.30;11.13;;;;;;;;;;5035374;28;20407;-69
2021/09/01 02:26:52;;;;;;;15.70;10.37;;;;;;;;;;5028891;28;20952;-69
2021/09/01 02:29:18;;;;;;;17.83;12.23;;;;;;;;;;5014355;28;20412;-69
2021/09/01 02:31:44;;;;;;;15.27;10.80;;;;;;;;;;5013783;28;20481;-69
2021/09/01 02:34:10;;;;;;;15.00;10.37;;;;;;;;;;5016677;28;20510;-69
2021/09/01 02:36:36;;;;;;;16.83;11.60;;;;;;;;;;5034504;28;20526;-69
2021/09/01 02:39:02;;;;;;;21.57;12.07;;;;;;;;;;5035426;28;20556;-69
2021/09/01 02:41:28;;;;;;;18.57;12.10;;;;;;;;;;5034446;28;20461;-69
2021/09/01 02:43:54;;;;;;;22.40;12.60;;;;;;;;;;5032037;28;20786;-69
2021/09/01 02:46:20;;;;;;;18.17;11.30;;;;;;;;;;5020626;28;20462;-69
2021/09/01 02:48:47;;;;;;;18.80;11.87;;;;;;;;;;5034069;28;20434;-69
2021/09/01 02:51:13;;;;;;;18.90;11.80;;;;;;;;;;5025082;28;20463;-69
2021/09/01 02:53:39;;;;;;;19.73;11.77;;;;;;;;;;5034967;28;20938;-69
2021/09/01 02:56:05;;;;;;;22.87;12.60;;;;;;;;;;5016297;28;20414;-68
2021/09/01 02:58:31;;;;;;;20.33;12.80;;;;;;;;;;5033591;28;20439;-69
2021/09/01 03:00:57;;;;;;;18.60;11.73;;;;;;;;;;5034806;28;20946;-69
2021/09/01 03:03:23;;;;;;;20.13;12.90;;;;;;;;;;5033757;28;20427;-69
2021/09/01 03:05:49;;;;;;;18.17;11.47;;;;;;;;;;5033710;28;20454;-69
2021/09/01 03:08:15;;;;;;;23.13;12.43;;;;;;;;;;5033650;28;20426;-69
2021/09/01 03:10:42;;;;;;;17.80;12.00;;;;;;;;;;5034476;28;20425;-69
2021/09/01 03:13:09;;;;;;;22.37;12.10;;;;;;;;;;5033812;28;20419;-69
2021/09/01 03:15:35;;;;;;;18.33;13.00;;;;;;;;;;5034396;28;20457;-69
2021/09/01 03:18:01;;;;;;;21.53;12.90;;;;;;;;;;5033312;28;20421;-69
2021/09/01 03:20:27;;;;;;;16.73;11.50;;;;;;;;;;5034378;28;20399;-69
2021/09/01 03:22:53;;;;;;;17.83;12.17;;;;;;;;;;5033003;28;20419;-69
2021/09/01 03:25:19;;;;;;;20.73;12.80;;;;;;;;;;5016348;28;20462;-69
2021/09/01 03:27:45;;;;;;;24.20;13.63;;;;;;;;;;5021320;28;20415;-69
2021/09/01 03:30:12;;;;;;;18.80;11.87;;;;;;;;;;5021771;28;20439;-69
2021/09/01 03:32:38;;;;;;;22.20;12.63;;;;;;;;;;5024896;28;20514;-68
2021/09/01 03:35:05;;;;;;;21.23;12.97;;;;;;;;;;5032924;28;20427;-69
2021/09/01 03:37:31;;;;;;;22.40;12.53;;;;;;;;;;5023508;28;20947;-69
2021/09/01 03:39:57;;;;;;;18.47;12.47;;;;;;;;;;5014265;28;20473;-69
2021/09/01 03:42:23;;;;;;;25.53;12.77;;;;;;;;;;5014175;28;20447;-69
2021/09/01 03:44:50;;;;;;;20.83;12.00;;;;;;;;;;5033875;28;20399;-69
2021/09/01 03:47:16;;;;;;;15.57;10.70;;;;;;;;;;5032874;28;20435;-69
2021/09/01 03:49:42;;;;;;;18.33;11.43;;;;;;;;;;5033813;28;20418;-68
2021/09/01 03:52:08;;;;;;;16.00;10.73;;;;;;;;;;5032688;28;20563;-69
2021/09/01 03:54:34;;;;;;;16.73;11.10;;;;;;;;;;5033712;28;20406;-69
2021/09/01 03:57:00;;;;;;;19.53;12.53;;;;;;;;;;5033090;28;20541;-69
2021/09/01 03:59:26;;;;;;;18.40;10.40;;;;;;;;;;5034033;28;20430;-69
2021/09/01 04:01:52;;;;;;;15.30;10.50;;;;;;;;;;5032628;28;20516;-69
2021/09/01 04:04:18;;;;;;;19.17;12.00;;;;;;;;;;5033127;28;20431;-69
2021/09/01 04:06:44;;;;;;;16.80;9.70;;;;;;;;;;5032026;28;20500;-69
2021/09/01 04:09:10;;;;;;;17.90;10.93;;;;;;;;;;5033386;28;20407;-69
2021/09/01 04:11:36;;;;;;;17.00;10.70;;;;;;;;;;5031980;28;20484;-69
2021/09/01 04:14:02;;;;;;;17.07;9.70;;;;;;;;;;5032959;28;20872;-69
2021/09/01 04:16:28;;;;;;;20.30;11.23;;;;;;;;;;5010787;28;20435;-69
2021/09/01 04:18:55;;;;;;;16.47;9.30;;;;;;;;;;5033559;28;20417;-69
2021/09/01 04:21:21;;;;;;;17.83;11.00;;;;;;;;;;5033297;28;20458;-69
2021/09/01 04:23:47;;;;;;;16.27;10.30;;;;;;;;;;5014453;28;20420;-69
2021/09/01 04:26:13;;;;;;;16.30;10.80;;;;;;;;;;5013539;28;20978;-68
2021/09/01 04:28:39;;;;;;;18.27;11.20;;;;;;;;;;5012185;28;20521;-68
2021/09/01 04:31:05;;;;;;;18.10;10.60;;;;;;;;;;5032967;28;20494;-68
2021/09/01 04:33:31;;;;;;;16.60;10.03;;;;;;;;;;5016263;28;20949;-68
2021/09/01 04:35:57;;;;;;;16.17;10.10;;;;;;;;;;5013878;28;20400;-68
2021/09/01 04:38:23;;;;;;;14.80;10.00;;;;;;;;;;5027697;28;20524;-68
2021/09/01 04:40:49;;;;;;;12.63;8.33;;;;;;;;;;5033346;28;20442;-68
2021/09/01 04:43:15;;;;;;;12.07;8.30;;;;;;;;;;5032115;28;20946;-68
2021/09/01 04:45:42;;;;;;;14.90;9.13;;;;;;;;;;5033172;28;20453;-68
2021/09/01 04:48:08;;;;;;;16.80;9.37;;;;;;;;;;5003574;28;20428;-68
2021/09/01 04:50:34;;;;;;;11.83;7.60;;;;;;;;;;5031154;28;20455;-69
2021/09/01 04:53:00;;;;;;;13.90;8.43;;;;;;;;;;5033500;28;20394;-68
2021/09/01 04:55:26;;;;;;;17.27;8.63;;;;;;;;;;5032268;28;20430;-69
2021/09/01 04:57:52;;;;;;;15.00;9.10;;;;;;;;;;5033390;28;20406;-69
2021/09/01 05:00:18;;;;;;;14.40;9.03;;;;;;;;;;5032178;28;20435;-69
2021/09/01 05:02:44;;;;;;;11.90;7.87;;;;;;;;;;5033463;28;20481;-69
2021/09/01 05:05:10;;;;;;;13.17;8.40;;;;;;;;;;5019160;28;20764;-69
2021/09/01 05:07:36;;;;;;;15.47;8.27;;;;;;;;;;5012231;28;20404;-69
2021/09/01 05:10:03;;;;;;;14.87;8.70;;;;;;;;;;5028097;28;20423;-69
2021/09/01 05:12:29;;;;;;;14.70;9.00;;;;;;;;;;5022914;28;20455;-69
2021/09/01 05:14:55;;;;;;;14.70;8.07;;;;;;;;;;5024880;28;20803;-69
2021/09/01 05:17:21;;;;;;;13.03;8.63;;;;;;;;;;5032834;28;20543;-69
2021/09/01 05:19:48;;;;;;;12.70;9.00;;;;;;;;;;5031019;28;20423;-69
2021/09/01 05:22:18;;;;;;;16.50;9.40;;;;;;;;;;5014925;28;20435;-69
2021/09/01 05:25:03;;;;;;;13.10;9.23;;;;;;;;;;5031937;28;20423;-69
2021/09/01 05:27:32;;;;;;;13.60;9.07;;;;;;;;;;5032801;28;20446;-69
2021/09/01 05:29:58;;;;;;;14.37;9.90;;;;;;;;;;5031720;28;20448;-69
2021/09/01 05:32:25;;;;;;;11.60;8.87;;;;;;;;;;5032814;28;20786;-69
2021/09/01 05:34:54;;;;;;;13.23;8.60;;;;;;;;;;5031809;28;20462;-69
2021/09/01 05:37:20;;;;;;;14.17;9.30;;;;;;;;;;5032648;28;20399;-69
2021/09/01 05:39:47;;;;;;;12.30;7.83;;;;;;;;;;5031555;28;20457;-69
2021/09/01 05:42:18;;;;;;;15.70;9.00;;;;;;;;;;5032333;28;20927;-69
2021/09/01 05:44:44;;;;;;;13.13;8.67;;;;;;;;;;5031867;28;20422;-69
2021/09/01 05:47:11;;;;;;;15.00;8.50;;;;;;;;;;5035181;28;20469;-69
2021/09/01 05:49:38;;;;;;;15.30;8.87;;;;;;;;;;5035425;28;20497;-69
2021/09/01 05:52:05;;;;;;;14.53;10.37;;;;;;;;;;5063974;23;20495;-66
2021/09/01 05:54:32;;;;;;;15.50;9.47;;;;;;;;;;5050289;28;20964;-65
2021/09/01 05:57:06;;;;;;;17.93;9.83;;;;;;;;;;5036541;28;20497;-64
2021/09/01 05:59:39;;;;;;;17.97;10.80;;;;;;;;;;5045059;28;20444;-64
2021/09/01 06:02:07;;;;;;;13.07;9.53;;;;;;;;;;5038342;28;20468;-64
2021/09/01 06:04:38;;;;;;;17.07;9.60;;;;;;;;;;5055226;28;20913;-63
2021/09/01 06:07:08;;;;;;;14.63;10.60;;;;;;;;;;5056138;28;20452;-63
2021/09/01 06:09:35;;;;;;;14.13;10.07;;;;;;;;;;5055117;28;20433;-64
2021/09/01 06:12:02;;;;;;;16.27;10.50;;;;;;;;;;5055966;28;20507;-63
2021/09/01 06:14:28;;;;;;;22.97;12.27;;;;;;;;;;5055031;28;20463;-65
2021/09/01 06:16:56;;;;;;;17.20;11.80;;;;;;;;;;5055953;28;20419;-65
2021/09/01 06:19:22;;;;;;;23.33;12.73;;;;;;;;;;5048856;28;20429;-64
2021/09/01 06:21:48;;;;;;;21.00;15.40;;;;;;;;;;5035706;28;20486;-64
2021/09/01 06:24:14;;;;;;;19.10;13.07;;;;;;;;;;5039456;28;20422;-63
2021/09/01 06:26:40;;;;;;;20.17;12.63;;;;;;;;;;5055568;28;20797;-64
2021/09/01 06:29:06;;;;;;;20.27;11.87;;;;;;;;;;5054645;28;20421;-65
2021/09/01 06:31:35;;;;;;;21.67;11.10;;;;;;;;;;5055609;28;20430;-64
2021/09/01 06:34:02;;;;;;;20.63;13.50;;;;;;;;;;5054588;28;20421;-65
2021/09/01 06:36:28;;;;;;;23.07;13.70;;;;;;;;;;5055675;28;20497;-64
2021/09/01 06:38:54;;;;;;;25.60;14.20;;;;;;;;;;5052935;28;20839;-63
2021/09/01 06:41:20;;;;;;;24.43;14.50;;;;;;;;;;5035418;28;20513;-64
2021/09/01 06:43:46;;;;;;;19.93;13.10;;;;;;;;;;5035761;28;20436;-63
2021/09/01 06:46:12;;;;;;;23.43;14.40;;;;;;;;;;5055232;28;20559;-65
2021/09/01 06:48:38;;;;;;;20.37;12.70;;;;;;;;;;5055285;28;20489;-64
2021/09/01 06:51:04;;;;;;;23.10;14.97;;;;;;;;;;5054887;28;20509;-65
2021/09/01 06:53:30;;;;;;;19.80;11.90;;;;;;;;;;5053532;28;20413;-64
2021/09/01 06:55:56;;;;;;;18.07;13.53;;;;;;;;;;5054539;28;20768;-64
2021/09/01 06:58:22;;;;;;;27.93;15.33;;;;;;;;;;5052373;28;20418;-64
2021/09/01 07:00:48;;;;;;;16.60;13.57;;;;;;;;;;5049923;28;20417;-63
2021/09/01 07:03:14;;;;;;;23.17;15.30;;;;;;;;;;5048467;28;20448;-63
2021/09/01 07:05:40;;;;;;;20.90;14.07;;;;;;;;;;5028084;28;20464;-63
2021/09/01 07:08:10;;;;;;;27.63;16.00;;;;;;;;;;5039499;28;20558;-63
2021/09/01 07:10:36;;;;;;;19.33;13.67;;;;;;;;;;5050626;28;20422;-64
2021/09/01 07:13:02;;;;;;;18.40;14.07;;;;;;;;;;5050565;28;20433;-63
2021/09/01 07:15:28;;;;;;;19.70;12.83;;;;;;;;;;5048482;28;20425;-64
2021/09/01 07:17:54;;;;;;;15.50;11.80;;;;;;;;;;5052736;28;20410;-63
2021/09/01 07:20:21;;;;;;;22.73;12.80;;;;;;;;;;5050316;28;20422;-63
2021/09/01 07:22:47;;;;;;;18.60;13.63;;;;;;;;;;5053183;28;20440;-64
2021/09/01 07:25:13;;;;;;;18.47;13.43;;;;;;;;;;5051681;28;20992;-63
2021/09/01 07:27:39;;;;;;;17.10;12.13;;;;;;;;;;5034403;28;20502;-63
2021/09/01 07:30:05;;;;;;;15.27;11.70;;;;;;;;;;5051403;28;20496;-63
2021/09/01 07:32:31;;;;;;;14.67;10.53;;;;;;;;;;5052818;28;20425;-63
2021/09/01 07:34:57;;;;;;;13.50;10.00;;;;;;;;;;5047242;28;20415;-64
2021/09/01 07:37:23;;;;;;;13.30;9.83;;;;;;;;;;5053458;28;20489;-64
2021/09/01 07:39:49;;;;;;;14.00;8.80;;;;;;;;;;5051410;28;20441;-63
2021/09/01 07:42:15;;;;;;;12.73;8.87;;;;;;;;;;5052913;28;20938;-64
2021/09/01 07:44:41;;;;;;;10.73;8.10;;;;;;;;;;5050888;28;20910;-64
2021/09/01 07:47:08;;;;;;;11.50;7.50;;;;;;;;;;5045808;28;20549;-64
2021/09/01 07:49:34;;;;;;;9.87;8.30;;;;;;;;;;5052450;28;20418;-64
2021/09/01 07:52:00;;;;;;;12.00;7.63;;;;;;;;;;5051178;28;20449;-63
2021/09/01 07:54:26;;;;;;;8.27;7.23;;;;;;;;;;5049521;28;20418;-62
2021/09/01 07:56:52;;;;;;;9.90;7.13;;;;;;;;;;5049046;28;20422;-62
2021/09/01 07:59:18;;;;;;;10.57;7.70;;;;;;;;;;5051036;28;20402;-62
2021/09/01 08:01:44;;;;;;;11.20;7.43;;;;;;;;;;5051613;28;20464;-62
2021/09/01 08:04:10;;;;;;;11.23;7.87;;;;;;;;;;5049708;28;20524;-67
2021/09/01 08:06:36;;;;;;;9.00;6.87;;;;;;;;;;5050743;28;20488;-62
2021/09/01 08:09:02;;;;;;;8.60;6.60;;;;;;;;;;5048859;28;20934;-63
2021/09/01 08:11:30;;;;;;;9.57;6.67;;;;;;;;;;5047696;28;20996;-62
2021/09/01 08:13:56;;;;;;;13.50;9.23;;;;;;;;;;5031460;28;20833;-64
2021/09/01 08:16:22;;;;;;;9.90;7.57;;;;;;;;;;5044842;28;20431;-62
2021/09/01 08:18:48;;;;;;;9.90;7.13;;;;;;;;;;5048608;28;20422;-67
2021/09/01 08:21:14;;;;;;;13.00;7.50;;;;;;;;;;5048621;28;20449;-67
2021/09/01 08:23:40;;;;;;;8.43;6.73;;;;;;;;;;5052738;28;20453;-62
2021/09/01 08:26:06;;;;;;;9.63;6.83;;;;;;;;;;5049175;28;20464;-62
2021/09/01 08:28:33;;;;;;;10.50;7.20;;;;;;;;;;5033951;28;20429;-67
2021/09/01 08:30:59;;;;;;;13.37;7.03;;;;;;;;;;5049385;28;20429;-66
2021/09/01 08:33:25;;;;;;;10.33;7.03;;;;;;;;;;5042353;28;20430;-65
2021/09/01 08:35:51;;;;;;;9.00;7.27;;;;;;;;;;5043646;28;20799;-67
2021/09/01 08:38:17;;;;;;;9.13;7.40;;;;;;;;;;5050721;28;20501;-64
2021/09/01 08:40:43;;;;;;;9.80;7.10;;;;;;;;;;5051372;28;20438;-65
2021/09/01 08:43:09;;;;;;;8.43;7.33;;;;;;;;;;5047401;28;20449;-66
2021/09/01 08:45:35;;;;;;;12.30;6.77;;;;;;;;;;5047121;28;20465;-67
2021/09/01 08:48:01;;;;;;;8.23;6.23;;;;;;;;;;5050065;28;20418;-67
2021/09/01 08:50:28;;;;;;;9.47;6.80;;;;;;;;;;5046419;28;20417;-66
2021/09/01 08:52:54;;;;;;;8.50;5.90;;;;;;;;;;5051993;28;20493;-66
2021/09/01 08:55:20;;;;;;;7.40;6.40;;;;;;;;;;5050087;28;20437;-65
2021/09/01 08:57:47;;;;;;;10.30;5.20;;;;;;;;;;5029465;28;20427;-65
2021/09/01 09:00:13;;;;;;;8.70;6.17;;;;;;;;;;5046573;28;20425;-65
2021/09/01 09:02:39;;;;;;;9.73;6.30;;;;;;;;;;5055159;28;20441;-68
2021/09/01 09:05:07;;;;;;;7.43;6.40;;;;;;;;;;5048057;28;20438;-63
2021/09/01 09:07:43;;;;;;;8.17;6.30;;;;;;;;;;5046503;28;20422;-66
2021/09/01 09:10:25;;;;;;;8.70;5.77;;;;;;;;;;5050439;28;20433;-66
2021/09/01 09:12:55;;;;;;;12.17;6.80;;;;;;;;;;5051500;28;20433;-67
2021/09/01 09:15:21;;;;;;;6.87;5.43;;;;;;;;;;5048987;28;21252;-68
2021/09/01 09:17:47;;;;;;;7.33;5.90;;;;;;;;;;5051153;28;20521;-67
2021/09/01 09:20:13;;;;;;;7.20;5.47;;;;;;;;;;5035236;28;20449;-68
2021/09/01 09:22:41;;;;;;;7.57;6.07;;;;;;;;;;5057892;28;20449;-68
2021/09/01 09:25:11;;;;;;;10.97;5.40;;;;;;;;;;5056985;28;20425;-68
2021/09/01 09:27:38;;;;;;;6.43;5.30;;;;;;;;;;5045591;28;20397;-68
2021/09/01 09:30:23;;;;;;;7.30;5.77;;;;;;;;;;5046869;28;20407;-68
2021/09/01 09:33:21;;;;;;;6.63;5.20;;;;;;;;;;5051570;28;20457;-67
2021/09/01 09:35:58;;;;;;;8.40;4.83;;;;;;;;;;5024753;28;20432;-65
2021/09/01 09:38:42;;;;;;;7.23;5.10;;;;;;;;;;5054867;28;20942;-65
2021/09/01 09:41:20;;;;;;;5.90;4.60;;;;;;;;;;5055362;28;20971;-63
2021/09/01 09:43:47;;;;;;;10.97;6.90;;;;;;;;;;5052809;28;20508;-63
2021/09/01 09:46:13;;;;;;;7.50;4.80;;;;;;;;;;5051876;28;20449;-62
2021/09/01 09:48:40;;;;;;;6.40;4.50;;;;;;;;;;5056267;28;20505;-62
2021/09/01 09:51:08;;;;;;;11.73;5.87;;;;;;;;;;5048748;28;20417;-66
2021/09/01 09:53:40;;;;;;;6.00;4.73;;;;;;;;;;5050014;28;20483;-65
2021/09/01 09:56:20;;;;;;;7.27;5.00;;;;;;;;;;5034004;28;20419;-65
2021/09/01 09:58:51;;;;;;;6.73;4.83;;;;;;;;;;5046413;28;20448;-64
2021/09/01 10:01:18;;;;;;;5.50;4.37;;;;;;;;;;5051679;28;20454;-64
2021/09/01 10:03:44;;;;;;;8.30;5.23;;;;;;;;;;5050786;28;20433;-65
2021/09/01 10:06:17;;;;;;;6.70;4.97;;;;;;;;;;5052948;28;20450;-64
2021/09/01 10:08:43;;;;;;;7.17;5.23;;;;;;;;;;5051483;28;20414;-64
2021/09/01 10:11:10;;;;;;;6.50;5.43;;;;;;;;;;5025287;28;20430;-64
2021/09/01 10:13:37;;;;;;;7.77;4.83;;;;;;;;;;5051166;28;20471;-64
2021/09/01 10:16:24;;;;;;;5.57;4.50;;;;;;;;;;5044552;28;20929;-64
2021/09/01 10:18:53;;;;;;;6.97;4.83;;;;;;;;;;5052527;28;20422;-64
2021/09/01 10:21:19;;;;;;;6.63;4.97;;;;;;;;;;5045458;28;20469;-64
2021/09/01 10:23:46;;;;;;;8.20;4.67;;;;;;;;;;5053475;28;20512;-64
2021/09/01 10:26:20;;;;;;;5.80;4.67;;;;;;;;;;5052607;28;20458;-64
2021/09/01 10:28:46;;;;;;;6.73;4.87;;;;;;;;;;5053238;28;20414;-64
2021/09/01 10:31:22;;;;;;;6.53;5.40;;;;;;;;;;5051796;28;20506;-63
2021/09/01 10:33:58;;;;;;;7.50;5.83;;;;;;;;;;5052491;28;20414;-63
2021/09/01 10:36:24;;;;;;;11.10;5.20;;;;;;;;;;5051731;28;20745;-63
2021/09/01 10:38:54;;;;;;;5.40;4.90;;;;;;;;;;5046045;28;20949;-63
2021/09/01 10:41:27;;;;;;;6.53;4.50;;;;;;;;;;5050082;28;20524;-64
2021/09/01 10:44:11;;;;;;;7.00;5.10;;;;;;;;;;5053342;28;20418;-64
2021/09/01 10:46:53;;;;;;;5.03;3.90;;;;;;;;;;5049021;28;20454;-64
2021/09/01 10:49:26;;;;;;;6.30;4.57;;;;;;;;;;5049364;28;20815;-64
2021/09/01 10:52:12;;;;;;;7.80;5.80;;;;;;;;;;5044457;28;20457;-65
2021/09/01 10:54:40;;;;;;;8.00;5.90;;;;;;;;;;5053762;28;20456;-64
2021/09/01 10:57:24;;;;;;;5.70;4.50;;;;;;;;;;5048516;28;20483;-64
2021/09/01 10:59:50;;;;;;;7.23;4.97;;;;;;;;;;5043030;28;20433;-64
2021/09/01 11:02:18;;;;;;;6.77;4.83;;;;;;;;;;5048571;28;20548;-64
2021/09/01 11:04:51;;;;;;;6.10;4.80;;;;;;;;;;5050464;28;20932;-64
2021/09/01 11:07:27;;;;;;;9.50;4.80;;;;;;;;;;5042799;28;20523;-64
2021/09/01 11:09:55;;;;;;;5.93;4.70;;;;;;;;;;5047115;28;20477;-64
2021/09/01 11:12:21;;;;;;;8.30;5.00;;;;;;;;;;5047257;28;20449;-64
2021/09/01 11:14:51;;;;;;;7.90;4.97;;;;;;;;;;5043754;28;20414;-64
2021/09/01 11:17:18;;;;;;;8.40;5.00;;;;;;;;;;5047463;28;20886;-64
2021/09/01 11:19:46;;;;;;;6.77;5.17;;;;;;;;;;5045662;28;20418;-65
2021/09/01 11:22:16;;;;;;;5.33;4.13;;;;;;;;;;5044937;28;20470;-66
2021/09/01 11:24:49;;;;;;;5.63;4.23;;;;;;;;;;5048391;28;20490;-66
2021/09/01 11:27:16;;;;;;;8.33;4.47;;;;;;;;;;5048018;28;20458;-66
2021/09/01 11:29:42;;;;;;;5.30;3.87;;;;;;;;;;5049468;28;20533;-65
2021/09/01 11:32:13;;;;;;;5.37;4.00;;;;;;;;;;5051264;28;20996;-66
2021/09/01 11:34:39;;;;;;;5.83;4.80;;;;;;;;;;5046595;28;20394;-64
2021/09/01 11:37:05;;;;;;;7.00;4.40;;;;;;;;;;5052168;28;20525;-64
2021/09/01 11:39:31;;;;;;;5.60;4.30;;;;;;;;;;5052288;28;20467;-64
2021/09/01 11:42:01;;;;;;;5.20;3.77;;;;;;;;;;5052147;28;20445;-64
2021/09/01 11:44:27;;;;;;;6.73;4.00;;;;;;;;;;5052162;28;20818;-64
2021/09/01 11:46:54;;;;;;;5.80;4.30;;;;;;;;;;5050851;28;20548;-64
2021/09/01 11:49:20;;;;;;;5.53;3.93;;;;;;;;;;5052288;28;20898;-66
2021/09/01 11:51:49;;;;;;;6.07;4.00;;;;;;;;;;5051079;28;20496;-65
2021/09/01 11:54:15;;;;;;;6.07;3.90;;;;;;;;;;5051571;28;20487;-64
2021/09/01 11:56:41;;;;;;;5.53;3.90;;;;;;;;;;5049380;28;20422;-64
2021/09/01 11:59:08;;;;;;;5.10;4.10;;;;;;;;;;5050980;28;20418;-64
2021/09/01 12:01:53;;;;;;;4.63;3.70;;;;;;;;;;5052794;28;20837;-64
2021/09/01 12:04:20;;;;;;;7.33;4.47;;;;;;;;;;5049170;28;20439;-64
2021/09/01 12:06:47;;;;;;;6.90;4.30;;;;;;;;;;5051034;28;20457;-64
2021/09/01 12:09:14;;;;;;;8.37;4.83;;;;;;;;;;5051677;28;20437;-64
2021/09/01 12:12:00;;;;;;;7.43;4.27;;;;;;;;;;5049116;28;20548;-64
2021/09/01 12:14:27;;;;;;;5.50;4.30;;;;;;;;;;5050857;28;20464;-64
2021/09/01 12:16:54;;;;;;;5.00;3.17;;;;;;;;;;5047699;28;20461;-64
2021/09/01 12:19:21;;;;;;;6.50;4.10;;;;;;;;;;5051960;28;20447;-64
2021/09/01 12:21:49;;;;;;;8.30;4.70;;;;;;;;;;5046701;28;20453;-64
2021/09/01 12:24:25;;;;;;;4.77;3.87;;;;;;;;;;5052013;28;20772;-64
2021/09/01 12:26:51;;;;;;;4.70;3.37;;;;;;;;;;5033826;28;20460;-65
2021/09/01 12:29:24;;;;;;;5.20;4.20;;;;;;;;;;5048465;28;20430;-65
2021/09/01 12:31:53;;;;;;;5.87;3.80;;;;;;;;;;5049337;28;20449;-64
2021/09/01 12:34:26;;;;;;;5.50;4.07;;;;;;;;;;5050904;28;20504;-64
2021/09/01 12:37:03;;;;;;;6.20;3.67;;;;;;;;;;5051014;28;20434;-64
2021/09/01 12:39:39;;;;;;;6.67;4.70;;;;;;;;;;5047700;28;20871;-64
2021/09/01 12:42:05;;;;;;;5.70;3.73;;;;;;;;;;5041667;28;21268;-64
2021/09/01 12:44:47;;;;;;;5.27;3.63;;;;;;;;;;5046844;28;20429;-64
2021/09/01 12:47:13;;;;;;;5.40;4.13;;;;;;;;;;5032389;28;20515;-64
2021/09/01 12:49:43;;;;;;;9.53;4.17;;;;;;;;;;5050908;28;20421;-65
2021/09/01 12:52:09;;;;;;;7.30;3.77;;;;;;;;;;5025610;28;20820;-64
2021/09/01 12:54:35;;;;;;;4.97;3.80;;;;;;;;;;5046370;28;20911;-64
2021/09/01 12:57:02;;;;;;;7.50;4.03;;;;;;;;;;5049481;28;20441;-65
2021/09/01 12:59:31;;;;;;;4.30;3.30;;;;;;;;;;5046043;28;20790;-64
2021/09/01 13:01:57;;;;;;;4.87;3.70;;;;;;;;;;5047015;28;20456;-63
2021/09/01 13:04:23;;;;;;;9.40;4.30;;;;;;;;;;5056979;28;20528;-64
2021/09/01 13:06:49;;;;;;;5.07;3.90;;;;;;;;;;5049873;28;20469;-64
2021/09/01 13:09:15;;;;;;;5.40;3.67;;;;;;;;;;5047272;28;20443;-64
2021/09/01 13:11:41;;;;;;;8.57;4.53;;;;;;;;;;5049638;28;20449;-64
2021/09/01 13:14:07;;;;;;;5.30;3.63;;;;;;;;;;5037584;28;20456;-64
2021/09/01 13:16:33;;;;;;;5.53;4.57;;;;;;;;;;5049753;28;20528;-64
2021/09/01 13:18:59;;;;;;;6.10;4.33;;;;;;;;;;5050441;28;20430;-65
2021/09/01 13:21:25;;;;;;;5.33;4.30;;;;;;;;;;5044966;28;20544;-64
2021/09/01 13:23:51;;;;;;;6.83;4.27;;;;;;;;;;5048639;28;20441;-64
2021/09/01 13:26:17;;;;;;;4.40;4.00;;;;;;;;;;5032799;28;20457;-64
2021/09/01 13:28:44;;;;;;;5.23;3.83;;;;;;;;;;5049033;28;20785;-64
2021/09/01 13:31:10;;;;;;;4.47;3.57;;;;;;;;;;5050520;28;20563;-64
2021/09/01 13:33:36;;;;;;;4.90;3.53;;;;;;;;;;5045633;28;20434;-64
2021/09/01 13:36:02;;;;;;;5.83;4.27;;;;;;;;;;5049770;28;20424;-64
2021/09/01 13:38:28;;;;;;;7.20;3.80;;;;;;;;;;5047632;28;20429;-64
2021/09/01 13:40:55;;;;;;;6.83;3.63;;;;;;;;;;5049120;28;20414;-64
2021/09/01 13:43:22;;;;;;;5.20;3.70;;;;;;;;;;5050058;28;20436;-65
2021/09/01 13:45:48;;;;;;;5.93;3.80;;;;;;;;;;5049511;28;20473;-64
2021/09/01 13:48:14;;;;;;;5.17;3.87;;;;;;;;;;5048356;28;20430;-64
2021/09/01 13:50:41;;;;;;;4.97;3.50;;;;;;;;;;5050289;28;20425;-64
2021/09/01 13:53:10;;;;;;;7.00;4.47;;;;;;;;;;5049655;28;20457;-64
2021/09/01 13:55:36;;;;;;;4.73;3.50;;;;;;;;;;5030903;28;20807;-64
2021/09/01 13:58:03;;;;;;;5.17;3.63;;;;;;;;;;5048453;28;20425;-64
2021/09/01 14:00:34;;;;;;;6.07;3.20;;;;;;;;;;5050648;28;20471;-64
2021/09/01 14:03:01;;;;;;;7.30;3.93;;;;;;;;;;5031248;28;20449;-64
2021/09/01 14:05:27;;;;;;;5.97;3.53;;;;;;;;;;5046990;28;20426;-64
2021/09/01 14:07:53;;;;;;;7.60;3.37;;;;;;;;;;5051329;28;20942;-64
2021/09/01 14:10:19;;;;;;;5.77;3.40;;;;;;;;;;5052918;28;20516;-64
2021/09/01 14:12:46;;;;;;;5.73;3.73;;;;;;;;;;5049150;28;20955;-64
2021/09/01 14:15:12;;;;;;;5.60;3.90;;;;;;;;;;5052415;28;20421;-64
2021/09/01 14:17:39;;;;;;;5.10;3.43;;;;;;;;;;5048973;28;20479;-64
2021/09/01 14:20:06;;;;;;;5.40;3.40;;;;;;;;;;5050273;28;20433;-64
2021/09/01 14:22:32;;;;;;;5.80;4.30;;;;;;;;;;5047258;28;20457;-65
2021/09/01 14:24:58;;;;;;;6.03;3.83;;;;;;;;;;5041260;28;20541;-64
2021/09/01 14:27:25;;;;;;;5.90;3.30;;;;;;;;;;5050380;28;21036;-64
2021/09/01 14:29:51;;;;;;;6.30;4.17;;;;;;;;;;5051165;28;21056;-64
2021/09/01 14:32:17;;;;;;;4.53;3.40;;;;;;;;;;5051250;28;20440;-64
2021/09/01 14:34:43;;;;;;;9.23;4.10;;;;;;;;;;5050624;28;20472;-64
2021/09/01 14:37:09;;;;;;;4.57;3.47;;;;;;;;;;5053654;28;20417;-64